Time;durP1;ratioP1;P1;durP2;ratioP2;P2;SDS_P1;SDS_P2;PMS_P1;PMS_P2;Temp;Humidity;BMP_temperature;BMP_pressure;BME280_temperature;BME280_humidity;BME280_pressure;Samples;Min_cycle;Max_cycle;Signal;HPM_P1;HPM_P2
2022/10/05 00:01:25;;;;;;;;;11.00;9.75;;;;;21.41;60.72;101139.69;5057178;28;48493;-44
2022/10/05 00:03:51;;;;;;;;;10.00;9.50;;;;;21.41;60.37;101139.69;5047581;28;45936;-42
2022/10/05 00:06:17;;;;;;;;;12.25;11.00;;;;;21.40;60.31;101135.28;5058252;28;45566;-41
2022/10/05 00:08:42;;;;;;;;;15.50;14.00;;;;;21.41;60.53;101139.69;5060569;28;70657;-43
2022/10/05 00:11:08;;;;;;;;;12.25;11.50;;;;;21.39;60.34;101131.75;5070198;28;75661;-42
2022/10/05 00:13:33;;;;;;;;;11.75;11.25;;;;;21.39;60.24;101131.75;5062498;28;45244;-42
2022/10/05 00:16:10;;;;;;;;;12.25;11.00;;;;;21.39;60.88;101137.06;5059986;28;69437;-41
2022/10/05 00:18:35;;;;;;;;;8.00;8.00;;;;;21.38;60.30;101132.69;5072221;28;45441;-41
2022/10/05 00:21:01;;;;;;;;;13.75;13.25;;;;;21.39;60.65;101136.19;5067996;27;46765;-43
2022/10/05 00:23:29;;;;;;;;;12.00;12.00;;;;;21.40;60.60;101128.19;5065544;28;70659;-41
2022/10/05 00:25:59;;;;;;;;;11.00;10.25;;;;;21.39;60.23;101131.75;5075623;28;45255;-42
2022/10/05 00:28:26;;;;;;;;;14.75;11.50;;;;;21.38;60.66;101130.03;5069422;28;45938;-41
2022/10/05 00:30:56;;;;;;;;;13.50;10.50;;;;;21.38;60.28;101119.41;5064061;28;45572;-41
2022/10/05 00:33:21;;;;;;;;;13.00;13.00;;;;;21.38;60.49;101110.56;5078368;27;45358;-41
2022/10/05 00:35:46;;;;;;;;;8.75;6.00;;;;;21.38;60.32;101115.88;5058025;28;56466;-41
2022/10/05 00:38:12;;;;;;;;;10.75;10.75;;;;;21.38;60.44;101115.88;5067745;27;59426;-41
2022/10/05 00:40:56;;;;;;;;;14.00;10.75;;;;;21.37;59.97;101114.09;5063001;27;75517;-40
2022/10/05 00:43:47;;;;;;;;;12.75;11.75;;;;;21.36;60.06;101113.25;5078669;28;45881;-41
2022/10/05 00:46:46;;;;;;;;;12.50;12.00;;;;;21.37;60.38;101116.75;5074323;28;45507;-41
2022/10/05 00:49:28;;;;;;;;;12.00;10.25;;;;;21.35;60.08;101111.50;5062654;28;45754;-42
2022/10/05 00:52:21;;;;;;;;;13.00;11.00;;;;;21.34;59.96;101107.13;5073272;28;49227;-42
2022/10/05 00:55:19;;;;;;;;;12.25;12.25;;;;;21.34;60.16;101109.78;5062340;28;45325;-42
2022/10/05 00:58:09;;;;;;;;;13.00;13.00;;;;;21.33;60.08;101108.03;5054149;28;45592;-43
2022/10/05 01:01:01;;;;;;;;;12.50;11.25;;;;;21.34;60.04;101111.56;5070456;28;45394;-44
2022/10/05 01:03:51;;;;;;;;;12.50;12.50;;;;;21.34;60.26;101116.88;5031760;28;48088;-43
2022/10/05 01:06:42;;;;;;;;;13.50;11.75;;;;;21.33;59.47;101116.00;5071845;27;45432;-41
2022/10/05 01:09:17;;;;;;;;;14.75;12.25;;;;;21.33;59.74;101109.81;5077341;28;45582;-47
2022/10/05 01:12:04;;;;;;;;;12.25;10.00;;;;;21.33;60.02;101115.13;5061919;28;45391;-45
2022/10/05 01:14:57;;;;;;;;;12.25;12.25;;;;;21.32;59.51;101110.75;5063591;28;46362;-44
2022/10/05 01:17:27;;;;;;;;;11.25;11.25;;;;;21.32;59.84;101106.28;5072979;28;45451;-43
2022/10/05 01:19:58;;;;;;;;;12.50;12.50;;;;;21.31;59.79;101109.00;5051726;28;45417;-42
2022/10/05 01:22:52;;;;;;;;;12.25;12.25;;;;;21.30;59.56;101110.78;5075717;28;45400;-45
2022/10/05 01:25:34;;;;;;;;;11.00;11.00;;;;;21.31;59.61;101112.53;5073030;28;45237;-41
2022/10/05 01:27:59;;;;;;;;;9.75;9.75;;;;;21.30;59.79;101115.22;5072003;28;45379;-43
2022/10/05 01:30:25;;;;;;;;;15.50;12.25;;;;;21.30;59.44;101108.13;5077042;27;45591;-45
2022/10/05 01:33:15;;;;;;;;;12.25;12.25;;;;;21.31;59.50;101109.00;5079824;28;62128;-42
2022/10/05 01:35:55;;;;;;;;;10.25;10.25;;;;;21.29;59.99;101106.41;5062070;28;47208;-46
2022/10/05 01:38:26;;;;;;;;;13.75;11.25;;;;;21.31;59.64;101106.34;5052823;28;45305;-46
2022/10/05 01:41:07;;;;;;;;;12.00;10.75;;;;;21.29;59.52;101101.09;5066828;28;45294;-48
2022/10/05 01:43:40;;;;;;;;;12.25;11.50;;;;;21.30;59.65;101100.16;5056609;28;47867;-44
2022/10/05 01:46:31;;;;;;;;;12.25;10.25;;;;;21.30;59.37;101094.88;5072626;28;46333;-43
2022/10/05 01:49:03;;;;;;;;;13.25;11.50;;;;;21.31;59.64;101096.59;5061259;28;48098;-41
2022/10/05 01:51:36;;;;;;;;;13.50;11.50;;;;;21.30;59.28;101094.88;5074317;27;45462;-41
2022/10/05 01:54:30;;;;;;;;;11.00;11.00;;;;;21.30;59.64;101092.22;5068872;28;45564;-41
2022/10/05 01:57:40;;;;;;;;;11.50;10.25;;;;;21.30;59.03;101094.88;5069240;28;46695;-42
2022/10/05 02:00:06;;;;;;;;;11.50;11.50;;;;;21.30;59.61;101092.22;5046900;28;45440;-42
2022/10/05 02:02:35;;;;;;;;;12.00;9.50;;;;;21.30;59.04;101088.69;5072092;27;45560;-43
2022/10/05 02:05:07;;;;;;;;;12.25;12.25;;;;;21.30;59.09;101083.38;5063142;28;46633;-43
2022/10/05 02:07:39;;;;;;;;;11.00;11.00;;;;;21.30;58.99;101083.38;5060386;28;45472;-42
2022/10/05 02:10:16;;;;;;;;;10.50;10.50;;;;;21.29;58.92;101084.28;5072133;28;46449;-42
2022/10/05 02:12:42;;;;;;;;;15.75;13.00;;;;;21.29;59.15;101076.31;5075648;27;45427;-42
2022/10/05 02:15:11;;;;;;;;;13.75;12.00;;;;;21.30;59.01;101078.06;5060629;28;45438;-42
2022/10/05 02:18:05;;;;;;;;;9.25;9.25;;;;;21.28;59.18;101075.44;5071684;28;45370;-41
2022/10/05 02:20:31;;;;;;;;;9.75;9.75;;;;;21.27;58.88;101071.03;5063429;27;52364;-44
2022/10/05 02:23:01;;;;;;;;;9.75;9.75;;;;;21.27;58.84;101064.84;5051522;28;45368;-42
2022/10/05 02:25:35;;;;;;;;;11.75;10.00;;;;;21.27;58.42;101063.06;5076336;28;45360;-41
2022/10/05 02:28:07;;;;;;;;;8.25;8.25;;;;;21.27;58.49;101054.25;5055096;28;46314;-43
2022/10/05 02:30:34;;;;;;;;;10.75;9.50;;;;;21.26;58.40;101055.13;5066601;28;45201;-43
2022/10/05 02:33:01;;;;;;;;;10.00;10.00;;;;;21.26;58.79;101052.47;5078792;28;46330;-42
2022/10/05 02:35:26;;;;;;;;;8.00;8.00;;;;;21.26;58.87;101050.69;5059971;28;45469;-42
2022/10/05 02:38:16;;;;;;;;;7.75;7.25;;;;;21.25;58.50;101048.94;5070145;28;64067;-42
2022/10/05 02:40:53;;;;;;;;;10.25;10.25;;;;;21.25;58.70;101041.00;5075848;28;45197;-42
2022/10/05 02:43:44;;;;;;;;;11.50;9.25;;;;;21.24;58.59;101041.91;5077661;28;45314;-42
2022/10/05 02:46:13;;;;;;;;;8.50;7.50;;;;;21.23;58.39;101040.16;5072731;28;45595;-43
2022/10/05 02:48:50;;;;;;;;;8.75;8.75;;;;;21.22;58.53;101041.09;5067662;27;46043;-41
2022/10/05 02:51:25;;;;;;;;;7.25;7.25;;;;;21.22;58.43;101038.44;5075773;27;46552;-42
2022/10/05 02:54:22;;;;;;;;;8.00;7.25;;;;;21.22;58.35;101032.25;5052450;28;45690;-42
2022/10/05 02:57:28;;;;;;;;;7.00;7.00;;;;;21.21;58.11;101039.34;5058342;28;45413;-42
2022/10/05 03:00:00;;;;;;;;;7.00;5.75;;;;;21.21;58.09;101038.50;5033473;28;48405;-42
2022/10/05 03:02:30;;;;;;;;;9.25;9.25;;;;;21.21;58.37;101035.84;5059394;28;45363;-47
2022/10/05 03:04:55;;;;;;;;;6.25;6.25;;;;;21.20;58.15;101040.28;5065106;28;45546;-44
2022/10/05 03:07:39;;;;;;;;;7.75;6.75;;;;;21.20;58.18;101040.28;5076079;28;45274;-47
2022/10/05 03:10:19;;;;;;;;;9.75;7.75;;;;;21.18;58.27;101040.28;5061810;28;46241;-46
2022/10/05 03:12:53;;;;;;;;;7.00;6.25;;;;;21.17;58.04;101032.38;5066335;28;45357;-43
2022/10/05 03:15:56;;;;;;;;;8.00;8.00;;;;;21.17;57.94;101037.69;5067282;28;45454;-44
2022/10/05 03:18:40;;;;;;;;;8.25;6.75;;;;;21.16;57.73;101039.47;5063870;28;45216;-45
2022/10/05 03:21:33;;;;;;;;;8.00;6.00;;;;;21.16;57.96;101028.00;5067574;28;45275;-42
2022/10/05 03:24:22;;;;;;;;;7.00;7.00;;;;;21.16;57.70;101028.00;5064234;27;45285;-43
2022/10/05 03:27:19;;;;;;;;;7.75;7.75;;;;;21.15;57.82;101024.47;5076781;28;45309;-42
2022/10/05 03:30:04;;;;;;;;;7.75;6.00;;;;;21.15;57.84;101023.59;5063792;28;45263;-42
2022/10/05 03:32:36;;;;;;;;;7.75;6.00;;;;;21.14;57.62;101017.44;5075131;28;45440;-44
2022/10/05 03:35:06;;;;;;;;;5.50;5.25;;;;;21.13;57.50;101018.34;5075021;28;45406;-42
2022/10/05 03:37:38;;;;;;;;;7.75;6.00;;;;;21.13;57.67;101010.38;5070621;28;45373;-42
2022/10/05 03:40:08;;;;;;;;;6.50;6.25;;;;;21.13;57.35;101014.81;5061982;28;45219;-42
2022/10/05 03:43:02;;;;;;;;;8.75;8.50;;;;;21.11;57.51;101009.56;5073486;28;45476;-42
2022/10/05 03:45:41;;;;;;;;;6.25;6.25;;;;;21.10;57.55;101010.44;5067997;27;45322;-44
2022/10/05 03:48:08;;;;;;;;;8.00;6.50;;;;;21.10;57.50;101004.28;5064593;28;45613;-42
2022/10/05 03:50:44;;;;;;;;;6.00;6.00;;;;;21.11;57.42;101003.34;5047696;28;45457;-43
2022/10/05 03:53:12;;;;;;;;;6.00;6.00;;;;;21.10;57.48;101004.28;5070071;28;46905;-41
2022/10/05 03:55:49;;;;;;;;;6.25;6.25;;;;;21.11;57.49;101004.25;5065419;28;45445;-41
2022/10/05 03:58:24;;;;;;;;;7.00;5.50;;;;;21.10;57.10;101004.28;5076142;28;45440;-42
2022/10/05 04:00:52;;;;;;;;;5.25;3.75;;;;;21.09;56.93;101006.06;5071541;28;45388;-44
2022/10/05 04:03:26;;;;;;;;;6.00;6.00;;;;;21.09;57.29;101005.19;5064802;28;47035;-42
2022/10/05 04:05:57;;;;;;;;;6.50;5.75;;;;;21.09;57.26;101008.72;5072540;28;45504;-41
2022/10/05 04:08:34;;;;;;;;;7.25;6.00;;;;;21.10;57.04;101006.94;5062043;28;45689;-46
2022/10/05 04:11:03;;;;;;;;;6.00;6.00;;;;;21.10;57.07;101015.75;5058398;28;45358;-42
2022/10/05 04:13:39;;;;;;;;;6.00;6.00;;;;;21.10;56.83;101012.25;5054304;28;45391;-46
2022/10/05 04:16:13;;;;;;;;;9.75;8.00;;;;;21.09;56.97;101011.38;5068526;28;45220;-42
2022/10/05 04:18:42;;;;;;;;;5.00;5.00;;;;;21.09;56.80;101011.38;5076564;28;45366;-42
2022/10/05 04:21:17;;;;;;;;;6.50;5.25;;;;;21.10;56.98;101013.09;5046480;28;45292;-42
2022/10/05 04:24:38;;;;;;;;;5.75;5.75;;;;;21.09;56.90;101002.53;5069198;28;51297;-43
2022/10/05 04:27:16;;;;;;;;;7.00;6.00;;;;;21.09;56.91;101000.75;4994399;28;45375;-42
2022/10/05 04:29:52;;;;;;;;;8.75;5.00;;;;;21.08;57.11;100993.72;5070419;28;45393;-42
2022/10/05 04:32:36;;;;;;;;;6.00;6.00;;;;;21.09;56.89;100994.56;5062027;28;46649;-41
2022/10/05 04:35:39;;;;;;;;;7.00;7.00;;;;;21.08;56.77;100993.72;5078743;27;46187;-45
2022/10/05 04:38:10;;;;;;;;;8.00;5.25;;;;;21.10;57.06;101001.63;5079836;27;45421;-44
2022/10/05 04:40:38;;;;;;;;;7.50;6.00;;;;;21.10;56.88;101001.63;5073521;28;45717;-42
2022/10/05 04:43:21;;;;;;;;;6.25;6.25;;;;;21.10;56.83;100996.31;5078700;28;45550;-45
2022/10/05 04:46:11;;;;;;;;;6.50;6.25;;;;;21.09;56.52;100986.63;5076253;28;49751;-42
2022/10/05 04:49:05;;;;;;;;;5.75;5.00;;;;;21.10;56.63;100996.31;5066188;27;45484;-48
2022/10/05 04:51:40;;;;;;;;;5.00;5.00;;;;;21.09;56.71;100986.63;5029939;28;45527;-48
2022/10/05 04:54:27;;;;;;;;;6.00;4.00;;;;;21.08;56.65;100990.19;5072168;28;45457;-43
2022/10/05 04:57:00;;;;;;;;;5.00;5.00;;;;;21.08;56.56;100983.09;5068745;27;45525;-45
2022/10/05 04:59:39;;;;;;;;;8.00;6.00;;;;;21.08;56.51;100980.44;5058914;28;45480;-42
2022/10/05 05:02:46;;;;;;;;;7.00;6.00;;;;;21.06;56.45;100982.28;5052998;28;45385;-45
2022/10/05 05:05:53;;;;;;;;;5.25;5.00;;;;;21.07;56.46;100972.53;5063573;28;53129;-45
2022/10/05 05:08:40;;;;;;;;;5.00;4.50;;;;;21.07;56.26;100975.19;5078204;28;49726;-44
2022/10/05 05:11:27;;;;;;;;;6.00;5.00;;;;;21.07;56.24;100977.84;5075809;28;45472;-42
2022/10/05 05:14:26;;;;;;;;;6.75;6.00;;;;;21.06;56.24;100969.00;5056380;28;45295;-43
2022/10/05 05:17:08;;;;;;;;;5.75;5.75;;;;;21.07;56.18;100965.44;5069226;28;45530;-44
2022/10/05 05:19:51;;;;;;;;;5.25;5.00;;;;;21.07;56.32;100968.09;5070853;28;47208;-45
2022/10/05 05:22:27;;;;;;;;;5.75;5.00;;;;;21.06;56.27;100963.72;5076149;28;45278;-45
2022/10/05 05:25:19;;;;;;;;;5.25;4.50;;;;;21.07;56.15;100962.78;5068610;28;45331;-44
2022/10/05 05:27:53;;;;;;;;;4.00;3.50;;;;;21.07;56.38;100969.88;5073775;28;45263;-42
2022/10/05 05:30:20;;;;;;;;;5.00;4.75;;;;;21.07;56.15;100959.25;5050945;28;52773;-43
2022/10/05 05:32:49;;;;;;;;;5.00;5.00;;;;;21.06;55.82;100963.72;5080187;27;45453;-45
2022/10/05 05:35:29;;;;;;;;;7.75;4.50;;;;;21.07;55.71;100961.91;5076210;27;45325;-43
2022/10/05 05:38:05;;;;;;;;;6.50;6.50;;;;;21.06;56.16;100960.19;5071263;28;45515;-43
2022/10/05 05:40:35;;;;;;;;;6.75;5.75;;;;;21.06;56.10;100952.22;5076886;28;47335;-43
2022/10/05 05:43:00;;;;;;;;;4.75;4.75;;;;;21.07;55.96;100953.97;5063181;28;45276;-43
2022/10/05 05:45:32;;;;;;;;;5.75;5.75;;;;;21.07;56.04;100948.66;5069609;28;45305;-46
2022/10/05 05:47:58;;;;;;;;;6.00;5.50;;;;;21.08;56.12;100955.69;5062969;28;45514;-43
2022/10/05 05:50:45;;;;;;;;;8.50;5.50;;;;;21.10;56.09;100948.53;5064066;28;45378;-43
2022/10/05 05:53:18;;;;;;;;;7.00;7.00;;;;;21.11;55.90;100953.84;5072927;28;45461;-43
2022/10/05 05:55:48;;;;;;;;;5.25;5.00;;;;;21.11;56.08;100953.84;5054762;28;45355;-44
2022/10/05 05:58:30;;;;;;;;;6.00;5.75;;;;;21.14;56.08;100955.50;5064523;28;45274;-46
2022/10/05 06:01:17;;;;;;;;;8.75;7.00;;;;;21.15;55.80;100949.28;5074620;27;45331;-45
2022/10/05 06:03:45;;;;;;;;;7.00;6.75;;;;;21.16;56.11;100961.63;5068741;28;45555;-47
2022/10/05 06:06:23;;;;;;;;;7.75;6.25;;;;;21.17;56.17;100961.59;5052550;28;45655;-45
2022/10/05 06:09:16;;;;;;;;;10.00;5.00;;;;;21.17;55.94;100956.28;5076869;28;45434;-45
2022/10/05 06:11:48;;;;;;;;;7.75;6.00;;;;;21.18;56.14;100958.00;5069206;28;46541;-44
2022/10/05 06:14:17;;;;;;;;;6.25;5.00;;;;;21.19;56.10;100956.22;5047604;28;45316;-43
2022/10/05 06:16:56;;;;;;;;;8.75;6.00;;;;;21.20;56.16;100957.09;5057932;28;45351;-43
2022/10/05 06:19:21;;;;;;;;;7.50;5.50;;;;;21.20;56.39;100943.81;5070845;27;45581;-43
2022/10/05 06:21:54;;;;;;;;;5.25;5.00;;;;;21.20;55.79;100954.44;5072619;28;45558;-44
2022/10/05 06:24:28;;;;;;;;;6.75;4.75;;;;;21.20;56.14;100950.03;5063138;28;45421;-46
2022/10/05 06:27:31;;;;;;;;;7.00;6.25;;;;;21.20;56.17;100950.03;5079138;27;45401;-44
2022/10/05 06:30:07;;;;;;;;;8.50;6.75;;;;;21.21;56.16;100948.22;5066277;28;45657;-43
2022/10/05 06:32:35;;;;;;;;;9.00;7.00;;;;;21.21;56.09;100951.75;5077779;27;46559;-44
2022/10/05 06:35:42;;;;;;;;;8.25;5.25;;;;;21.21;55.89;100954.41;5076588;27;45300;-48
2022/10/05 06:38:26;;;;;;;;;6.00;5.00;;;;;21.23;55.62;100949.03;5065985;28;45303;-45
2022/10/05 06:41:05;;;;;;;;;5.75;5.25;;;;;21.25;55.83;100948.06;5065798;28;45546;-45
2022/10/05 06:43:40;;;;;;;;;5.50;5.25;;;;;21.24;54.35;100953.44;5071881;28;48216;-35
2022/10/05 06:46:25;;;;;;;;;9.50;7.25;;;;;21.02;53.86;100950.56;5057771;28;48472;-36
2022/10/05 06:49:02;;;;;;;;;8.25;7.75;;;;;20.75;53.51;100950.47;5060228;28;45641;-36
2022/10/05 06:51:36;;;;;;;;;8.75;7.50;;;;;20.50;54.50;100946.78;5071545;28;45301;-36
2022/10/05 06:54:14;;;;;;;;;9.50;8.25;;;;;20.27;54.33;100947.41;5067589;28;46417;-36
2022/10/05 06:56:54;;;;;;;;;9.25;9.25;;;;;20.10;54.07;100947.00;5066266;28;45675;-36
2022/10/05 06:59:29;;;;;;;;;9.50;9.50;;;;;19.93;54.40;100942.16;5076746;28;45180;-36
2022/10/05 07:02:17;;;;;;;;;13.75;12.00;;;;;19.79;54.21;100952.22;5067393;28;45278;-35
2022/10/05 07:04:59;;;;;;;;;10.75;10.50;;;;;19.63;55.13;100949.94;5026219;27;45456;-34
2022/10/05 07:07:53;;;;;;;;;8.75;8.75;;;;;19.63;57.04;100947.28;5076440;27;46439;-37
2022/10/05 07:10:26;;;;;;;;;11.75;10.00;;;;;19.71;57.76;100947.97;5069341;28;45263;-34
2022/10/05 07:12:59;;;;;;;;;12.25;10.75;;;;;19.82;57.93;100944.22;5076723;28;45217;-35
2022/10/05 07:15:39;;;;;;;;;12.00;9.75;;;;;19.91;58.01;100942.19;5053947;28;45459;-34
2022/10/05 07:18:33;;;;;;;;;11.75;8.25;;;;;20.03;58.65;100951.59;5041543;28;45292;-34
2022/10/05 07:21:10;;;;;;;;;9.50;7.75;;;;;20.13;58.51;100960.16;5059367;28;45307;-34
2022/10/05 07:24:21;;;;;;;;;10.50;10.25;;;;;20.22;58.78;100960.78;5072978;28;45242;-34
2022/10/05 07:26:53;;;;;;;;;9.50;7.25;;;;;20.31;58.85;100962.31;4997622;28;47053;-34
2022/10/05 07:29:31;;;;;;;;;9.25;8.25;;;;;20.39;59.17;100967.41;5060923;28;45393;-34
2022/10/05 07:32:14;;;;;;;;;9.50;7.50;;;;;20.46;58.75;100971.66;5059179;28;45320;-34
2022/10/05 07:34:55;;;;;;;;;10.00;9.25;;;;;20.53;58.81;100973.25;5058994;28;45347;-35
2022/10/05 07:37:56;;;;;;;;;11.75;8.50;;;;;20.56;58.92;100974.00;5072132;28;45273;-35
2022/10/05 07:40:36;;;;;;;;;8.50;8.50;;;;;20.60;59.00;100977.47;5000408;28;45362;-35
2022/10/05 07:43:47;;;;;;;;;7.50;7.00;;;;;20.65;59.02;100985.28;5063502;27;45344;-36
2022/10/05 07:46:31;;;;;;;;;6.50;5.50;;;;;20.70;58.28;100983.38;4998157;28;45571;-36
2022/10/05 07:49:12;;;;;;;;;8.00;6.50;;;;;20.75;58.69;100984.09;5012652;28;45439;-36
2022/10/05 07:52:10;;;;;;;;;10.25;7.50;;;;;20.77;58.45;100979.63;5054251;28;45295;-35
2022/10/05 07:54:45;;;;;;;;;10.25;10.00;;;;;20.80;58.48;100988.34;5078316;28;45339;-35
2022/10/05 07:57:13;;;;;;;;;8.75;7.75;;;;;20.83;58.51;100985.59;5069861;28;45492;-35
2022/10/05 07:59:55;;;;;;;;;12.75;8.75;;;;;20.87;58.00;100992.56;5072293;27;45410;-36
2022/10/05 08:02:43;;;;;;;;;8.50;8.50;;;;;20.76;56.78;100983.16;5041909;28;46187;-36
2022/10/05 08:05:17;;;;;;;;;10.25;9.25;;;;;20.60;56.59;100985.41;5082509;28;45255;-36
2022/10/05 08:07:42;;;;;;;;;8.75;8.75;;;;;20.49;56.71;100990.13;5068993;28;45229;-36
2022/10/05 08:10:20;;;;;;;;;12.50;10.50;;;;;20.34;56.56;100988.75;5085463;28;65857;-37
2022/10/05 08:13:16;;;;;;;;;11.50;8.75;;;;;20.20;56.84;100989.13;5062522;28;45288;-36
2022/10/05 08:15:44;;;;;;;;;7.00;7.00;;;;;20.07;56.95;100985.06;5064462;28;45322;-37
2022/10/05 08:18:45;;;;;;;;;8.50;8.50;;;;;19.99;56.84;100990.56;5062096;28;45340;-36
2022/10/05 08:21:11;;;;;;;;;6.50;6.50;;;;;19.94;57.13;100988.91;5062798;28;46419;-36
2022/10/05 08:23:56;;;;;;;;;10.25;6.50;;;;;19.88;57.14;100984.63;5056111;28;45366;-36
2022/10/05 08:26:41;;;;;;;;;5.00;5.00;;;;;19.79;56.96;100995.47;5072127;28;45279;-36
2022/10/05 08:29:25;;;;;;;;;7.50;7.25;;;;;19.67;57.34;100996.66;5071308;28;45381;-36
2022/10/05 08:31:55;;;;;;;;;5.00;5.00;;;;;19.60;57.31;101000.34;5061686;28;46385;-37
2022/10/05 08:34:40;;;;;;;;;8.00;8.00;;;;;19.55;57.86;100988.09;5070897;28;45361;-37
2022/10/05 08:37:26;;;;;;;;;6.50;5.25;;;;;19.53;57.88;101009.28;5079569;28;45363;-36
2022/10/05 08:39:51;;;;;;;;;7.00;6.25;;;;;19.52;58.11;101004.03;5082714;28;45440;-37
2022/10/05 08:42:54;;;;;;;;;5.50;5.50;;;;;19.50;57.70;101009.38;5076323;28;45296;-37
2022/10/05 08:45:39;;;;;;;;;6.00;6.00;;;;;19.43;57.96;101005.13;5059281;28;45330;-36
2022/10/05 08:48:34;;;;;;;;;8.25;6.75;;;;;19.38;58.23;101009.66;5063354;28;45269;-36
2022/10/05 08:51:28;;;;;;;;;8.00;6.25;;;;;19.37;58.56;101010.53;5044317;28;45359;-37
2022/10/05 08:53:59;;;;;;;;;8.00;7.50;;;;;19.39;58.83;101011.41;5070686;28;46649;-37
2022/10/05 08:56:46;;;;;;;;;7.00;6.75;;;;;19.42;58.92;101009.56;5082401;28;45281;-36
2022/10/05 08:59:14;;;;;;;;;5.75;5.25;;;;;19.46;58.75;101020.97;5071182;28;45385;-37
2022/10/05 09:01:58;;;;;;;;;7.50;6.50;;;;;19.47;58.82;101022.69;5062875;27;45303;-36
2022/10/05 09:04:28;;;;;;;;;7.75;7.00;;;;;19.47;58.82;101025.34;5075482;28;45561;-37
2022/10/05 09:07:15;;;;;;;;;8.00;7.00;;;;;19.43;58.57;101023.66;5066457;28;45346;-36
2022/10/05 09:10:05;;;;;;;;;4.75;4.75;;;;;19.40;58.57;101018.44;5075455;28;45431;-36
2022/10/05 09:13:05;;;;;;;;;6.00;6.00;;;;;19.39;58.90;101017.56;5067724;28;45453;-36
2022/10/05 09:15:39;;;;;;;;;9.50;6.75;;;;;19.36;58.94;101020.28;5063185;28;47661;-36
2022/10/05 09:18:23;;;;;;;;;7.00;7.00;;;;;19.37;59.05;101040.56;5069052;28;45432;-36
2022/10/05 09:20:57;;;;;;;;;5.25;5.25;;;;;19.29;59.08;101017.81;5066131;27;45477;-37
2022/10/05 09:23:31;;;;;;;;;8.00;7.50;;;;;19.26;58.91;101021.38;5051164;28;45656;-37
2022/10/05 09:26:26;;;;;;;;;10.50;8.25;;;;;19.25;59.03;101024.06;5061758;28;47538;-37
2022/10/05 09:29:16;;;;;;;;;8.75;8.00;;;;;19.27;58.99;101028.41;5073963;28;45397;-37
2022/10/05 09:32:07;;;;;;;;;8.25;8.25;;;;;19.26;59.25;101029.31;5064133;28;45305;-35
2022/10/05 09:34:46;;;;;;;;;6.50;6.50;;;;;19.31;59.27;101021.28;5076975;28;45430;-36
2022/10/05 09:37:19;;;;;;;;;7.25;7.25;;;;;19.35;58.91;101021.19;5063811;28;45539;-37
2022/10/05 09:40:19;;;;;;;;;8.25;7.25;;;;;19.41;59.23;101025.47;5070483;27;45232;-37
2022/10/05 09:42:56;;;;;;;;;6.00;6.00;;;;;19.50;60.21;101027.91;5071879;28;45432;-36
2022/10/05 09:45:27;;;;;;;;;6.75;5.50;;;;;19.58;58.71;101018.03;5081355;28;45331;-36
2022/10/05 09:48:07;;;;;;;;;5.50;5.50;;;;;19.60;59.24;101026.81;5070421;27;45398;-36
2022/10/05 09:51:10;;;;;;;;;7.00;7.00;;;;;19.68;58.81;101034.59;5073353;28;45449;-36
2022/10/05 09:53:54;;;;;;;;;6.25;6.00;;;;;19.71;58.53;101018.63;5061547;28;45557;-35
2022/10/05 09:56:42;;;;;;;;;5.75;5.75;;;;;19.72;58.29;101042.44;5061936;28;45318;-35
2022/10/05 09:59:26;;;;;;;;;6.00;6.00;;;;;19.71;57.99;101018.63;5072850;28;45548;-36
2022/10/05 10:01:57;;;;;;;;;8.75;6.00;;;;;19.68;58.18;101024.00;5061567;28;45291;-35
2022/10/05 10:04:34;;;;;;;;;10.50;7.50;;;;;19.66;57.96;101021.38;5075327;28;45495;-35
2022/10/05 10:07:49;;;;;;;;;5.00;5.00;;;;;19.66;57.88;101021.38;5066088;28;45363;-35
2022/10/05 10:10:14;;;;;;;;;7.00;7.00;;;;;19.68;58.18;101029.28;5042744;28;45687;-35
2022/10/05 10:13:01;;;;;;;;;6.00;5.25;;;;;19.68;57.57;101018.69;5022708;28;45360;-35
2022/10/05 10:16:08;;;;;;;;;7.00;6.00;;;;;19.66;57.54;101023.16;5045374;28;45429;-36
2022/10/05 10:18:42;;;;;;;;;4.50;4.50;;;;;19.67;57.13;101020.47;5057030;28;45489;-36
2022/10/05 10:21:36;;;;;;;;;4.00;4.00;;;;;19.69;56.87;101023.94;5062527;28;45307;-36
2022/10/05 10:24:07;;;;;;;;;5.00;4.25;;;;;19.69;56.51;101013.34;5073205;28;45392;-36
2022/10/05 10:26:42;;;;;;;;;4.25;3.50;;;;;19.67;56.22;101006.38;5061236;28;45287;-36
2022/10/05 10:29:31;;;;;;;;;4.00;3.25;;;;;19.60;55.88;101004.75;5062216;28;45377;-36
2022/10/05 10:32:21;;;;;;;;;5.00;3.50;;;;;19.55;56.14;101011.94;5060623;28;45376;-36
2022/10/05 10:35:21;;;;;;;;;4.75;4.75;;;;;19.58;57.78;101009.22;5060714;28;45329;-36
2022/10/05 10:38:19;;;;;;;;;4.00;4.00;;;;;19.67;58.24;101006.38;5069781;28;45328;-35
2022/10/05 10:40:53;;;;;;;;;4.50;4.50;;;;;19.75;58.41;101007.06;5060883;28;45239;-36
2022/10/05 10:43:48;;;;;;;;;5.75;4.75;;;;;19.84;58.65;101009.47;5060429;28;47549;-35
2022/10/05 10:47:07;;;;;;;;;4.75;4.50;;;;;19.95;58.70;101006.56;5060518;28;45241;-35
2022/10/05 10:49:59;;;;;;;;;7.25;6.00;;;;;20.04;58.95;101001.88;5000325;28;45471;-35
2022/10/05 10:53:01;;;;;;;;;4.50;4.50;;;;;20.15;58.96;101004.25;5085995;27;45257;-35
2022/10/05 10:55:41;;;;;;;;;5.75;5.00;;;;;20.21;59.12;100988.19;5066158;28;45854;-35
2022/10/05 10:58:28;;;;;;;;;7.25;6.50;;;;;20.26;59.06;100991.63;5065258;28;44844;-34
2022/10/05 11:01:05;;;;;;;;;6.25;5.25;;;;;20.33;58.64;100990.53;5067640;27;45479;-35
2022/10/05 11:04:09;;;;;;;;;5.00;4.00;;;;;20.40;59.30;100990.34;5068075;28;45622;-35
2022/10/05 11:06:40;;;;;;;;;7.25;4.75;;;;;20.44;58.23;100984.97;5068647;28;47303;-35
2022/10/05 11:09:12;;;;;;;;;7.00;5.50;;;;;20.50;58.44;100981.25;5073785;28;45487;-34
2022/10/05 11:11:59;;;;;;;;;6.25;5.25;;;;;20.54;58.33;100975.84;5070530;28;45311;-36
2022/10/05 11:14:55;;;;;;;;;4.50;2.50;;;;;20.59;58.25;100967.78;5067752;28;45527;-36
2022/10/05 11:17:25;;;;;;;;;6.25;6.25;;;;;20.63;58.57;100957.94;5074395;28;46408;-36
2022/10/05 11:19:59;;;;;;;;;6.25;6.25;;;;;20.65;57.97;100969.34;5073140;28;45499;-37
2022/10/05 11:23:02;;;;;;;;;4.75;4.50;;;;;20.66;57.93;100958.69;5077488;28;45384;-37
2022/10/05 11:25:37;;;;;;;;;8.75;6.00;;;;;20.68;58.05;100962.19;5060301;28;45631;-36
2022/10/05 11:28:12;;;;;;;;;5.00;5.00;;;;;20.68;57.73;100954.25;5048369;28;46442;-36
2022/10/05 11:30:50;;;;;;;;;4.50;4.50;;;;;20.71;57.58;100937.38;5072977;28;45369;-36
2022/10/05 11:33:47;;;;;;;;;5.50;4.00;;;;;20.72;57.98;100945.28;5070555;28;45325;-36
2022/10/05 11:36:18;;;;;;;;;4.00;4.00;;;;;20.74;58.13;100939.91;5065878;28;45235;-36
2022/10/05 11:39:06;;;;;;;;;4.25;4.00;;;;;20.76;58.74;100938.97;5075360;28;47395;-35
2022/10/05 11:41:40;;;;;;;;;6.50;5.00;;;;;20.79;58.82;100938.00;5074237;28;45328;-35
2022/10/05 11:44:18;;;;;;;;;6.75;6.50;;;;;20.81;57.79;100962.69;5060233;28;45330;-35
2022/10/05 11:46:53;;;;;;;;;7.00;6.00;;;;;20.82;58.10;100959.13;5072351;28;45370;-34
2022/10/05 11:49:21;;;;;;;;;5.25;4.50;;;;;20.80;58.27;100951.22;5065613;28;45370;-35
2022/10/05 11:52:12;;;;;;;;;7.25;4.25;;;;;20.83;58.58;100959.06;5060499;28;45357;-36
2022/10/05 11:55:02;;;;;;;;;5.50;4.25;;;;;20.86;58.21;100943.09;5050030;28;45373;-36
2022/10/05 11:57:41;;;;;;;;;4.25;4.25;;;;;20.87;58.23;100949.25;5070653;28;45591;-36
2022/10/05 12:00:15;;;;;;;;;7.75;5.00;;;;;20.86;57.98;100951.06;5049134;28;46987;-36
2022/10/05 12:03:12;;;;;;;;;5.75;5.75;;;;;20.86;57.90;100956.34;5076740;27;45241;-35
2022/10/05 12:05:40;;;;;;;;;6.00;6.00;;;;;20.87;58.07;100947.47;5042434;28;45256;-35
2022/10/05 12:08:22;;;;;;;;;6.00;6.00;;;;;20.88;58.21;100938.59;5074274;28;45425;-35
2022/10/05 12:10:58;;;;;;;;;6.00;6.00;;;;;20.87;57.94;100936.88;5073136;28;45347;-35
2022/10/05 12:13:29;;;;;;;;;8.25;6.00;;;;;20.86;58.12;100932.47;5059149;28;45307;-35
2022/10/05 12:16:11;;;;;;;;;6.25;5.00;;;;;20.87;58.38;100938.66;5078384;28;45361;-34
2022/10/05 12:19:03;;;;;;;;;6.50;5.25;;;;;20.88;58.14;100928.00;5069676;28;45394;-36
2022/10/05 12:21:51;;;;;;;;;6.75;5.75;;;;;20.89;58.54;100940.34;5062833;28;45299;-36
2022/10/05 12:25:01;;;;;;;;;8.00;5.00;;;;;20.92;58.61;100922.56;5069335;28;45314;-36